sensor_id;sensor_type;location;lat;lon;timestamp;P1;durP1;ratioP1;P2;durP2;ratioP2
4508;SDS011;2267;48.816;9.230;2022-10-16T00:01:07;5.07;;;2.33;;
4508;SDS011;2267;48.816;9.230;2022-10-16T00:03:37;3.37;;;2.27;;
4508;SDS011;2267;48.816;9.230;2022-10-16T00:06:06;3.27;;;2.30;;
4508;SDS011;2267;48.816;9.230;2022-10-16T00:08:33;5.50;;;2.83;;
4508;SDS011;2267;48.816;9.230;2022-10-16T00:11:02;3.50;;;2.40;;
4508;SDS011;2267;48.816;9.230;2022-10-16T00:13:33;2.73;;;2.40;;
4508;SDS011;2267;48.816;9.230;2022-10-16T00:16:01;4.27;;;2.40;;
4508;SDS011;2267;48.816;9.230;2022-10-16T00:18:28;3.53;;;2.53;;
4508;SDS011;2267;48.816;9.230;2022-10-16T00:21:01;7.10;;;2.50;;
4508;SDS011;2267;48.816;9.230;2022-10-16T00:23:29;3.07;;;2.10;;
4508;SDS011;2267;48.816;9.230;2022-10-16T00:26:01;4.83;;;2.80;;
4508;SDS011;2267;48.816;9.230;2022-10-16T00:28:30;4.70;;;2.47;;
4508;SDS011;2267;48.816;9.230;2022-10-16T00:30:57;3.63;;;2.47;;
4508;SDS011;2267;48.816;9.230;2022-10-16T00:33:24;2.87;;;2.57;;
4508;SDS011;2267;48.816;9.230;2022-10-16T00:35:51;5.50;;;3.07;;
4508;SDS011;2267;48.816;9.230;2022-10-16T00:38:17;4.37;;;2.70;;
4508;SDS011;2267;48.816;9.230;2022-10-16T00:40:44;4.40;;;2.20;;
4508;SDS011;2267;48.816;9.230;2022-10-16T00:43:31;4.03;;;2.23;;
4508;SDS011;2267;48.816;9.230;2022-10-16T00:46:01;4.00;;;2.63;;
4508;SDS011;2267;48.816;9.230;2022-10-16T00:48:29;3.13;;;2.60;;
4508;SDS011;2267;48.816;9.230;2022-10-16T00:50:57;2.73;;;2.27;;
4508;SDS011;2267;48.816;9.230;2022-10-16T00:53:24;2.50;;;2.10;;
4508;SDS011;2267;48.816;9.230;2022-10-16T00:55:52;5.53;;;2.20;;
4508;SDS011;2267;48.816;9.230;2022-10-16T00:58:19;3.27;;;2.20;;
4508;SDS011;2267;48.816;9.230;2022-10-16T01:00:46;4.93;;;2.30;;
4508;SDS011;2267;48.816;9.230;2022-10-16T01:03:30;3.70;;;2.40;;
4508;SDS011;2267;48.816;9.230;2022-10-16T01:08:49;4.67;;;2.83;;
4508;SDS011;2267;48.816;9.230;2022-10-16T01:11:47;3.63;;;2.47;;
4508;SDS011;2267;48.816;9.230;2022-10-16T01:17:10;5.40;;;2.80;;
4508;SDS011;2267;48.816;9.230;2022-10-16T01:22:50;4.30;;;2.70;;
4508;SDS011;2267;48.816;9.230;2022-10-16T01:25:29;5.00;;;2.90;;
4508;SDS011;2267;48.816;9.230;2022-10-16T01:28:13;4.23;;;3.43;;
4508;SDS011;2267;48.816;9.230;2022-10-16T01:30:42;3.87;;;3.20;;
4508;SDS011;2267;48.816;9.230;2022-10-16T01:33:15;3.50;;;3.20;;
4508;SDS011;2267;48.816;9.230;2022-10-16T01:35:48;4.47;;;3.40;;
4508;SDS011;2267;48.816;9.230;2022-10-16T01:38:24;3.83;;;3.13;;
4508;SDS011;2267;48.816;9.230;2022-10-16T01:41:06;3.00;;;2.50;;
4508;SDS011;2267;48.816;9.230;2022-10-16T01:43:43;3.67;;;2.77;;
4508;SDS011;2267;48.816;9.230;2022-10-16T01:46:16;3.30;;;3.00;;
4508;SDS011;2267;48.816;9.230;2022-10-16T01:48:45;3.17;;;2.43;;
4508;SDS011;2267;48.816;9.230;2022-10-16T01:51:14;3.60;;;2.60;;
4508;SDS011;2267;48.816;9.230;2022-10-16T01:53:43;6.07;;;3.63;;
4508;SDS011;2267;48.816;9.230;2022-10-16T01:56:14;3.07;;;2.77;;
4508;SDS011;2267;48.816;9.230;2022-10-16T01:58:52;3.80;;;2.90;;
4508;SDS011;2267;48.816;9.230;2022-10-16T02:01:22;3.83;;;3.07;;
4508;SDS011;2267;48.816;9.230;2022-10-16T02:03:51;5.43;;;3.37;;
4508;SDS011;2267;48.816;9.230;2022-10-16T02:06:22;5.40;;;3.20;;
4508;SDS011;2267;48.816;9.230;2022-10-16T02:08:49;3.00;;;2.70;;
4508;SDS011;2267;48.816;9.230;2022-10-16T02:11:16;6.43;;;2.70;;
4508;SDS011;2267;48.816;9.230;2022-10-16T02:13:51;3.30;;;2.90;;
4508;SDS011;2267;48.816;9.230;2022-10-16T02:16:23;3.30;;;2.83;;
4508;SDS011;2267;48.816;9.230;2022-10-16T02:18:59;5.23;;;3.57;;
4508;SDS011;2267;48.816;9.230;2022-10-16T02:21:28;4.30;;;2.93;;
4508;SDS011;2267;48.816;9.230;2022-10-16T02:24:03;4.90;;;2.97;;
4508;SDS011;2267;48.816;9.230;2022-10-16T02:26:41;7.10;;;3.07;;
4508;SDS011;2267;48.816;9.230;2022-10-16T02:29:22;3.80;;;3.43;;
4508;SDS011;2267;48.816;9.230;2022-10-16T02:31:52;4.20;;;3.00;;
4508;SDS011;2267;48.816;9.230;2022-10-16T02:34:24;4.60;;;2.70;;
4508;SDS011;2267;48.816;9.230;2022-10-16T02:36:52;5.17;;;3.13;;
4508;SDS011;2267;48.816;9.230;2022-10-16T02:39:20;5.33;;;3.50;;
4508;SDS011;2267;48.816;9.230;2022-10-16T02:41:47;6.90;;;3.47;;
4508;SDS011;2267;48.816;9.230;2022-10-16T02:44:14;4.57;;;3.03;;
4508;SDS011;2267;48.816;9.230;2022-10-16T02:46:41;4.23;;;2.80;;
4508;SDS011;2267;48.816;9.230;2022-10-16T02:49:08;3.10;;;2.80;;
4508;SDS011;2267;48.816;9.230;2022-10-16T02:51:34;3.77;;;3.40;;
4508;SDS011;2267;48.816;9.230;2022-10-16T02:54:02;3.50;;;2.87;;
4508;SDS011;2267;48.816;9.230;2022-10-16T02:56:29;4.93;;;3.20;;
4508;SDS011;2267;48.816;9.230;2022-10-16T02:58:56;4.07;;;2.47;;
4508;SDS011;2267;48.816;9.230;2022-10-16T03:01:23;6.67;;;2.83;;
4508;SDS011;2267;48.816;9.230;2022-10-16T03:03:50;6.13;;;2.50;;
4508;SDS011;2267;48.816;9.230;2022-10-16T03:06:17;3.50;;;2.93;;
4508;SDS011;2267;48.816;9.230;2022-10-16T03:08:44;4.77;;;3.13;;
4508;SDS011;2267;48.816;9.230;2022-10-16T03:11:10;4.27;;;2.80;;
4508;SDS011;2267;48.816;9.230;2022-10-16T03:13:37;3.60;;;2.60;;
4508;SDS011;2267;48.816;9.230;2022-10-16T03:16:04;3.30;;;3.00;;
4508;SDS011;2267;48.816;9.230;2022-10-16T03:18:30;4.97;;;3.10;;
4508;SDS011;2267;48.816;9.230;2022-10-16T03:20:57;3.53;;;2.67;;
4508;SDS011;2267;48.816;9.230;2022-10-16T03:23:25;3.90;;;2.50;;
4508;SDS011;2267;48.816;9.230;2022-10-16T03:25:52;4.70;;;2.30;;
4508;SDS011;2267;48.816;9.230;2022-10-16T03:28:19;4.83;;;2.80;;
4508;SDS011;2267;48.816;9.230;2022-10-16T03:30:46;2.40;;;2.20;;
4508;SDS011;2267;48.816;9.230;2022-10-16T03:33:13;2.23;;;2.03;;
4508;SDS011;2267;48.816;9.230;2022-10-16T03:35:40;4.17;;;2.33;;
4508;SDS011;2267;48.816;9.230;2022-10-16T03:38:06;4.57;;;2.37;;
4508;SDS011;2267;48.816;9.230;2022-10-16T03:40:33;2.87;;;2.20;;
4508;SDS011;2267;48.816;9.230;2022-10-16T03:43:00;6.43;;;2.40;;
4508;SDS011;2267;48.816;9.230;2022-10-16T03:45:27;3.30;;;2.40;;
4508;SDS011;2267;48.816;9.230;2022-10-16T03:47:54;2.83;;;2.63;;
4508;SDS011;2267;48.816;9.230;2022-10-16T03:50:20;3.90;;;2.60;;
4508;SDS011;2267;48.816;9.230;2022-10-16T03:52:47;2.87;;;2.13;;
4508;SDS011;2267;48.816;9.230;2022-10-16T03:55:14;5.97;;;2.97;;
4508;SDS011;2267;48.816;9.230;2022-10-16T03:57:41;8.53;;;2.93;;
4508;SDS011;2267;48.816;9.230;2022-10-16T04:00:08;3.40;;;2.50;;
4508;SDS011;2267;48.816;9.230;2022-10-16T04:02:35;3.23;;;2.93;;
4508;SDS011;2267;48.816;9.230;2022-10-16T04:05:02;3.93;;;2.87;;
4508;SDS011;2267;48.816;9.230;2022-10-16T04:07:28;4.53;;;2.73;;
4508;SDS011;2267;48.816;9.230;2022-10-16T04:09:55;3.00;;;2.60;;
4508;SDS011;2267;48.816;9.230;2022-10-16T04:12:25;2.63;;;2.33;;
4508;SDS011;2267;48.816;9.230;2022-10-16T04:14:52;5.83;;;2.80;;
4508;SDS011;2267;48.816;9.230;2022-10-16T04:17:19;3.30;;;2.30;;
4508;SDS011;2267;48.816;9.230;2022-10-16T04:19:46;3.93;;;2.00;;
4508;SDS011;2267;48.816;9.230;2022-10-16T04:22:12;5.07;;;2.70;;
4508;SDS011;2267;48.816;9.230;2022-10-16T04:24:39;4.40;;;2.40;;
4508;SDS011;2267;48.816;9.230;2022-10-16T04:27:06;3.50;;;2.70;;
4508;SDS011;2267;48.816;9.230;2022-10-16T04:29:33;5.13;;;2.30;;
4508;SDS011;2267;48.816;9.230;2022-10-16T04:31:59;3.33;;;2.50;;
4508;SDS011;2267;48.816;9.230;2022-10-16T04:34:26;4.60;;;2.60;;
4508;SDS011;2267;48.816;9.230;2022-10-16T04:36:53;11.73;;;3.00;;
4508;SDS011;2267;48.816;9.230;2022-10-16T04:39:20;4.93;;;3.00;;
4508;SDS011;2267;48.816;9.230;2022-10-16T04:41:46;2.93;;;2.63;;
4508;SDS011;2267;48.816;9.230;2022-10-16T04:44:13;3.60;;;2.33;;
4508;SDS011;2267;48.816;9.230;2022-10-16T04:46:40;6.83;;;2.77;;
4508;SDS011;2267;48.816;9.230;2022-10-16T04:49:06;4.53;;;2.53;;
4508;SDS011;2267;48.816;9.230;2022-10-16T04:51:33;3.30;;;3.00;;
4508;SDS011;2267;48.816;9.230;2022-10-16T04:54:00;4.23;;;2.30;;
4508;SDS011;2267;48.816;9.230;2022-10-16T04:56:26;3.23;;;2.60;;
4508;SDS011;2267;48.816;9.230;2022-10-16T04:58:53;6.10;;;2.97;;
4508;SDS011;2267;48.816;9.230;2022-10-16T05:01:20;4.30;;;2.37;;
4508;SDS011;2267;48.816;9.230;2022-10-16T05:03:47;4.07;;;2.57;;
4508;SDS011;2267;48.816;9.230;2022-10-16T05:06:13;5.53;;;2.40;;
4508;SDS011;2267;48.816;9.230;2022-10-16T05:08:40;2.87;;;2.33;;
4508;SDS011;2267;48.816;9.230;2022-10-16T05:11:07;2.60;;;2.20;;
4508;SDS011;2267;48.816;9.230;2022-10-16T05:13:33;3.70;;;2.80;;
4508;SDS011;2267;48.816;9.230;2022-10-16T05:16:00;5.67;;;2.37;;
4508;SDS011;2267;48.816;9.230;2022-10-16T05:18:27;4.30;;;2.10;;
4508;SDS011;2267;48.816;9.230;2022-10-16T05:20:53;6.97;;;2.20;;
4508;SDS011;2267;48.816;9.230;2022-10-16T05:23:20;3.33;;;2.17;;
4508;SDS011;2267;48.816;9.230;2022-10-16T05:25:56;4.60;;;2.40;;
4508;SDS011;2267;48.816;9.230;2022-10-16T05:28:27;3.20;;;2.63;;
4508;SDS011;2267;48.816;9.230;2022-10-16T05:30:56;5.40;;;2.60;;
4508;SDS011;2267;48.816;9.230;2022-10-16T05:33:24;5.97;;;2.40;;
4508;SDS011;2267;48.816;9.230;2022-10-16T05:35:51;5.70;;;2.70;;
4508;SDS011;2267;48.816;9.230;2022-10-16T05:38:18;5.50;;;2.43;;
4508;SDS011;2267;48.816;9.230;2022-10-16T05:40:50;3.37;;;2.67;;
4508;SDS011;2267;48.816;9.230;2022-10-16T05:43:18;3.97;;;2.50;;
4508;SDS011;2267;48.816;9.230;2022-10-16T05:45:52;3.67;;;2.60;;
4508;SDS011;2267;48.816;9.230;2022-10-16T05:48:23;6.03;;;2.73;;
4508;SDS011;2267;48.816;9.230;2022-10-16T05:50:57;3.07;;;2.30;;
4508;SDS011;2267;48.816;9.230;2022-10-16T05:53:29;4.30;;;2.70;;
4508;SDS011;2267;48.816;9.230;2022-10-16T05:55:57;4.30;;;2.63;;
4508;SDS011;2267;48.816;9.230;2022-10-16T05:58:24;3.60;;;2.43;;
4508;SDS011;2267;48.816;9.230;2022-10-16T06:00:58;3.60;;;2.73;;
4508;SDS011;2267;48.816;9.230;2022-10-16T06:03:30;2.80;;;2.30;;
4508;SDS011;2267;48.816;9.230;2022-10-16T06:05:57;6.17;;;2.83;;
4508;SDS011;2267;48.816;9.230;2022-10-16T06:08:24;4.03;;;2.30;;
4508;SDS011;2267;48.816;9.230;2022-10-16T06:11:00;4.90;;;2.40;;
4508;SDS011;2267;48.816;9.230;2022-10-16T06:13:28;6.23;;;2.43;;
4508;SDS011;2267;48.816;9.230;2022-10-16T06:15:56;3.73;;;2.90;;
4508;SDS011;2267;48.816;9.230;2022-10-16T06:18:24;4.57;;;2.53;;
4508;SDS011;2267;48.816;9.230;2022-10-16T06:20:52;7.03;;;2.87;;
4508;SDS011;2267;48.816;9.230;2022-10-16T06:23:20;4.73;;;2.73;;
4508;SDS011;2267;48.816;9.230;2022-10-16T06:25:46;4.47;;;2.20;;
4508;SDS011;2267;48.816;9.230;2022-10-16T06:28:13;5.90;;;2.30;;
4508;SDS011;2267;48.816;9.230;2022-10-16T06:30:41;2.93;;;2.13;;
4508;SDS011;2267;48.816;9.230;2022-10-16T06:33:10;4.00;;;2.27;;
4508;SDS011;2267;48.816;9.230;2022-10-16T06:35:37;2.93;;;2.40;;
4508;SDS011;2267;48.816;9.230;2022-10-16T06:38:03;3.93;;;2.67;;
4508;SDS011;2267;48.816;9.230;2022-10-16T06:40:30;3.20;;;2.90;;
4508;SDS011;2267;48.816;9.230;2022-10-16T06:42:57;2.53;;;2.10;;
4508;SDS011;2267;48.816;9.230;2022-10-16T06:45:23;4.50;;;3.07;;
4508;SDS011;2267;48.816;9.230;2022-10-16T06:47:50;10.83;;;3.33;;
4508;SDS011;2267;48.816;9.230;2022-10-16T06:50:17;4.47;;;2.90;;
4508;SDS011;2267;48.816;9.230;2022-10-16T06:52:43;3.60;;;3.10;;
4508;SDS011;2267;48.816;9.230;2022-10-16T06:55:10;3.50;;;2.90;;
4508;SDS011;2267;48.816;9.230;2022-10-16T06:57:37;3.63;;;2.50;;
4508;SDS011;2267;48.816;9.230;2022-10-16T07:00:04;4.43;;;3.03;;
4508;SDS011;2267;48.816;9.230;2022-10-16T07:02:31;4.40;;;2.57;;
4508;SDS011;2267;48.816;9.230;2022-10-16T07:04:58;3.17;;;2.87;;
4508;SDS011;2267;48.816;9.230;2022-10-16T07:07:24;5.30;;;2.90;;
4508;SDS011;2267;48.816;9.230;2022-10-16T07:09:52;5.00;;;2.27;;
4508;SDS011;2267;48.816;9.230;2022-10-16T07:12:19;4.70;;;2.67;;
4508;SDS011;2267;48.816;9.230;2022-10-16T07:14:46;3.73;;;2.70;;
4508;SDS011;2267;48.816;9.230;2022-10-16T07:17:12;2.73;;;2.20;;
4508;SDS011;2267;48.816;9.230;2022-10-16T07:19:39;3.50;;;2.47;;
4508;SDS011;2267;48.816;9.230;2022-10-16T07:22:06;2.77;;;2.17;;
4508;SDS011;2267;48.816;9.230;2022-10-16T07:24:33;4.77;;;2.57;;
4508;SDS011;2267;48.816;9.230;2022-10-16T07:26:59;3.10;;;2.40;;
4508;SDS011;2267;48.816;9.230;2022-10-16T07:29:26;2.20;;;2.00;;
4508;SDS011;2267;48.816;9.230;2022-10-16T07:31:53;2.50;;;2.20;;
4508;SDS011;2267;48.816;9.230;2022-10-16T07:34:20;5.03;;;2.90;;
4508;SDS011;2267;48.816;9.230;2022-10-16T07:36:50;5.70;;;2.97;;
4508;SDS011;2267;48.816;9.230;2022-10-16T07:39:17;2.87;;;2.60;;
4508;SDS011;2267;48.816;9.230;2022-10-16T07:41:43;3.30;;;2.57;;
4508;SDS011;2267;48.816;9.230;2022-10-16T07:44:10;4.13;;;3.03;;
4508;SDS011;2267;48.816;9.230;2022-10-16T07:46:37;5.03;;;2.80;;
4508;SDS011;2267;48.816;9.230;2022-10-16T07:49:04;4.47;;;2.77;;
4508;SDS011;2267;48.816;9.230;2022-10-16T07:51:30;3.23;;;2.60;;
4508;SDS011;2267;48.816;9.230;2022-10-16T07:53:57;3.90;;;2.63;;
4508;SDS011;2267;48.816;9.230;2022-10-16T07:56:25;5.30;;;2.70;;
4508;SDS011;2267;48.816;9.230;2022-10-16T07:58:51;4.00;;;3.70;;
4508;SDS011;2267;48.816;9.230;2022-10-16T08:01:19;3.80;;;3.50;;
4508;SDS011;2267;48.816;9.230;2022-10-16T08:03:47;6.70;;;3.20;;
4508;SDS011;2267;48.816;9.230;2022-10-16T08:06:15;4.27;;;2.70;;
4508;SDS011;2267;48.816;9.230;2022-10-16T08:08:47;5.47;;;2.43;;
4508;SDS011;2267;48.816;9.230;2022-10-16T08:11:14;3.07;;;2.77;;
4508;SDS011;2267;48.816;9.230;2022-10-16T08:13:41;5.73;;;3.07;;
4508;SDS011;2267;48.816;9.230;2022-10-16T08:16:08;5.03;;;3.07;;
4508;SDS011;2267;48.816;9.230;2022-10-16T08:18:36;3.70;;;2.90;;
4508;SDS011;2267;48.816;9.230;2022-10-16T08:21:04;4.23;;;2.83;;
4508;SDS011;2267;48.816;9.230;2022-10-16T08:23:32;3.30;;;2.70;;
4508;SDS011;2267;48.816;9.230;2022-10-16T08:26:07;4.93;;;2.30;;
4508;SDS011;2267;48.816;9.230;2022-10-16T08:28:34;2.63;;;2.23;;
4508;SDS011;2267;48.816;9.230;2022-10-16T08:31:09;4.23;;;2.13;;
4508;SDS011;2267;48.816;9.230;2022-10-16T08:33:45;3.50;;;2.00;;
4508;SDS011;2267;48.816;9.230;2022-10-16T08:36:13;2.10;;;1.77;;
4508;SDS011;2267;48.816;9.230;2022-10-16T08:38:41;2.63;;;2.13;;
4508;SDS011;2267;48.816;9.230;2022-10-16T08:44:13;4.70;;;1.70;;
4508;SDS011;2267;48.816;9.230;2022-10-16T08:47:10;3.90;;;1.90;;
4508;SDS011;2267;48.816;9.230;2022-10-16T08:49:42;3.03;;;1.80;;
4508;SDS011;2267;48.816;9.230;2022-10-16T08:52:39;4.83;;;1.77;;
4508;SDS011;2267;48.816;9.230;2022-10-16T08:55:21;3.83;;;2.00;;
4508;SDS011;2267;48.816;9.230;2022-10-16T08:57:51;2.70;;;1.90;;
4508;SDS011;2267;48.816;9.230;2022-10-16T09:00:18;6.33;;;2.20;;
4508;SDS011;2267;48.816;9.230;2022-10-16T09:02:49;6.33;;;2.70;;
4508;SDS011;2267;48.816;9.230;2022-10-16T09:05:38;3.40;;;1.97;;
4508;SDS011;2267;48.816;9.230;2022-10-16T09:10:56;3.50;;;2.20;;
4508;SDS011;2267;48.816;9.230;2022-10-16T09:13:34;3.33;;;2.00;;
4508;SDS011;2267;48.816;9.230;2022-10-16T09:16:28;3.33;;;1.90;;
4508;SDS011;2267;48.816;9.230;2022-10-16T09:19:09;5.33;;;1.83;;
4508;SDS011;2267;48.816;9.230;2022-10-16T09:21:45;3.73;;;2.30;;
4508;SDS011;2267;48.816;9.230;2022-10-16T09:24:14;3.50;;;1.77;;
4508;SDS011;2267;48.816;9.230;2022-10-16T09:26:43;5.50;;;2.37;;
4508;SDS011;2267;48.816;9.230;2022-10-16T09:29:14;3.33;;;2.00;;
4508;SDS011;2267;48.816;9.230;2022-10-16T09:31:42;3.77;;;1.97;;
4508;SDS011;2267;48.816;9.230;2022-10-16T09:34:32;2.67;;;1.70;;
4508;SDS011;2267;48.816;9.230;2022-10-16T09:36:59;2.60;;;1.77;;
4508;SDS011;2267;48.816;9.230;2022-10-16T09:39:29;2.93;;;1.70;;
4508;SDS011;2267;48.816;9.230;2022-10-16T09:41:55;4.33;;;1.87;;
4508;SDS011;2267;48.816;9.230;2022-10-16T09:44:29;4.63;;;1.77;;
4508;SDS011;2267;48.816;9.230;2022-10-16T09:47:01;3.03;;;1.90;;
4508;SDS011;2267;48.816;9.230;2022-10-16T09:49:28;2.10;;;1.83;;
4508;SDS011;2267;48.816;9.230;2022-10-16T09:52:06;4.10;;;2.00;;
4508;SDS011;2267;48.816;9.230;2022-10-16T09:54:48;5.50;;;2.23;;
4508;SDS011;2267;48.816;9.230;2022-10-16T09:57:26;2.77;;;1.83;;
4508;SDS011;2267;48.816;9.230;2022-10-16T09:59:54;2.77;;;1.73;;
4508;SDS011;2267;48.816;9.230;2022-10-16T10:02:34;2.37;;;1.70;;
4508;SDS011;2267;48.816;9.230;2022-10-16T10:05:04;4.00;;;2.13;;
4508;SDS011;2267;48.816;9.230;2022-10-16T10:08:12;1.90;;;1.50;;
4508;SDS011;2267;48.816;9.230;2022-10-16T10:10:44;5.10;;;1.80;;
4508;SDS011;2267;48.816;9.230;2022-10-16T10:13:17;5.97;;;2.53;;
4508;SDS011;2267;48.816;9.230;2022-10-16T10:15:47;2.50;;;2.00;;
4508;SDS011;2267;48.816;9.230;2022-10-16T10:18:16;2.87;;;2.03;;
4508;SDS011;2267;48.816;9.230;2022-10-16T10:20:59;2.30;;;1.33;;
4508;SDS011;2267;48.816;9.230;2022-10-16T10:23:28;2.70;;;1.40;;
4508;SDS011;2267;48.816;9.230;2022-10-16T10:26:02;2.33;;;1.90;;
4508;SDS011;2267;48.816;9.230;2022-10-16T10:31:41;2.53;;;1.70;;
4508;SDS011;2267;48.816;9.230;2022-10-16T10:43:29;2.57;;;1.90;;
4508;SDS011;2267;48.816;9.230;2022-10-16T10:45:28;2.40;;;1.90;;
4508;SDS011;2267;48.816;9.230;2022-10-16T10:50:57;4.63;;;2.03;;
4508;SDS011;2267;48.816;9.230;2022-10-16T10:53:34;3.00;;;1.67;;
4508;SDS011;2267;48.816;9.230;2022-10-16T10:59:39;4.30;;;1.60;;
4508;SDS011;2267;48.816;9.230;2022-10-16T11:02:31;3.90;;;1.83;;
4508;SDS011;2267;48.816;9.230;2022-10-16T11:05:13;3.57;;;1.70;;
4508;SDS011;2267;48.816;9.230;2022-10-16T11:08:04;2.20;;;1.30;;
4508;SDS011;2267;48.816;9.230;2022-10-16T11:13:33;6.30;;;1.97;;
4508;SDS011;2267;48.816;9.230;2022-10-16T11:19:05;1.80;;;1.40;;
4508;SDS011;2267;48.816;9.230;2022-10-16T11:22:03;2.93;;;1.87;;
4508;SDS011;2267;48.816;9.230;2022-10-16T11:24:48;2.43;;;1.43;;
4508;SDS011;2267;48.816;9.230;2022-10-16T11:27:23;3.60;;;1.60;;
4508;SDS011;2267;48.816;9.230;2022-10-16T11:30:05;3.57;;;1.40;;
4508;SDS011;2267;48.816;9.230;2022-10-16T11:32:49;2.93;;;1.53;;
4508;SDS011;2267;48.816;9.230;2022-10-16T11:35:19;2.87;;;1.63;;
4508;SDS011;2267;48.816;9.230;2022-10-16T11:37:51;5.77;;;1.70;;
4508;SDS011;2267;48.816;9.230;2022-10-16T11:40:30;2.03;;;1.33;;
4508;SDS011;2267;48.816;9.230;2022-10-16T11:43:04;2.00;;;1.30;;
4508;SDS011;2267;48.816;9.230;2022-10-16T11:45:42;2.20;;;1.40;;
4508;SDS011;2267;48.816;9.230;2022-10-16T11:51:07;2.30;;;1.30;;
4508;SDS011;2267;48.816;9.230;2022-10-16T11:56:11;2.50;;;1.40;;
4508;SDS011;2267;48.816;9.230;2022-10-16T12:01:41;2.20;;;1.30;;
4508;SDS011;2267;48.816;9.230;2022-10-16T12:04:31;5.17;;;1.60;;
4508;SDS011;2267;48.816;9.230;2022-10-16T12:07:12;2.33;;;1.23;;
4508;SDS011;2267;48.816;9.230;2022-10-16T12:09:43;2.40;;;1.33;;
4508;SDS011;2267;48.816;9.230;2022-10-16T12:12:26;1.77;;;1.10;;
4508;SDS011;2267;48.816;9.230;2022-10-16T12:18:24;3.97;;;1.60;;
4508;SDS011;2267;48.816;9.230;2022-10-16T12:20:58;2.47;;;1.37;;
4508;SDS011;2267;48.816;9.230;2022-10-16T12:23:31;2.20;;;1.30;;
4508;SDS011;2267;48.816;9.230;2022-10-16T12:26:25;3.40;;;1.73;;
4508;SDS011;2267;48.816;9.230;2022-10-16T12:28:54;4.67;;;1.53;;
4508;SDS011;2267;48.816;9.230;2022-10-16T12:31:23;2.10;;;1.10;;
4508;SDS011;2267;48.816;9.230;2022-10-16T12:39:49;2.20;;;1.30;;
4508;SDS011;2267;48.816;9.230;2022-10-16T12:44:54;2.17;;;1.30;;
4508;SDS011;2267;48.816;9.230;2022-10-16T12:49:57;2.50;;;1.87;;
4508;SDS011;2267;48.816;9.230;2022-10-16T12:52:34;2.67;;;1.20;;
4508;SDS011;2267;48.816;9.230;2022-10-16T12:55:04;1.97;;;1.40;;
4508;SDS011;2267;48.816;9.230;2022-10-16T12:58:05;1.90;;;1.30;;
4508;SDS011;2267;48.816;9.230;2022-10-16T13:00:35;2.30;;;1.53;;
4508;SDS011;2267;48.816;9.230;2022-10-16T13:23:26;3.60;;;2.07;;
4508;SDS011;2267;48.816;9.230;2022-10-16T13:28:42;1.90;;;1.20;;
4508;SDS011;2267;48.816;9.230;2022-10-16T13:31:22;3.10;;;1.50;;
4508;SDS011;2267;48.816;9.230;2022-10-16T13:33:51;2.87;;;1.27;;
4508;SDS011;2267;48.816;9.230;2022-10-16T13:36:22;2.80;;;2.00;;
4508;SDS011;2267;48.816;9.230;2022-10-16T13:42:06;2.60;;;1.33;;
4508;SDS011;2267;48.816;9.230;2022-10-16T13:44:48;2.50;;;1.33;;
4508;SDS011;2267;48.816;9.230;2022-10-16T13:47:18;3.30;;;1.77;;
4508;SDS011;2267;48.816;9.230;2022-10-16T13:49:45;2.83;;;1.43;;
4508;SDS011;2267;48.816;9.230;2022-10-16T13:52:19;2.30;;;1.63;;
4508;SDS011;2267;48.816;9.230;2022-10-16T13:54:47;2.20;;;1.47;;
4508;SDS011;2267;48.816;9.230;2022-10-16T13:57:15;2.60;;;1.43;;
4508;SDS011;2267;48.816;9.230;2022-10-16T13:59:52;2.30;;;1.30;;
4508;SDS011;2267;48.816;9.230;2022-10-16T14:05:16;4.17;;;1.70;;
4508;SDS011;2267;48.816;9.230;2022-10-16T14:07:43;2.93;;;1.50;;
4508;SDS011;2267;48.816;9.230;2022-10-16T14:10:23;2.40;;;1.87;;
4508;SDS011;2267;48.816;9.230;2022-10-16T14:13:05;3.40;;;1.43;;
4508;SDS011;2267;48.816;9.230;2022-10-16T14:15:34;4.70;;;1.67;;
4508;SDS011;2267;48.816;9.230;2022-10-16T14:18:02;3.83;;;1.80;;
4508;SDS011;2267;48.816;9.230;2022-10-16T14:20:30;2.50;;;1.70;;
4508;SDS011;2267;48.816;9.230;2022-10-16T14:23:00;1.77;;;1.30;;
4508;SDS011;2267;48.816;9.230;2022-10-16T14:25:29;2.10;;;1.40;;
4508;SDS011;2267;48.816;9.230;2022-10-16T14:28:03;2.03;;;1.30;;
4508;SDS011;2267;48.816;9.230;2022-10-16T14:30:36;6.00;;;1.77;;
4508;SDS011;2267;48.816;9.230;2022-10-16T14:33:05;2.30;;;1.70;;
4508;SDS011;2267;48.816;9.230;2022-10-16T14:35:46;2.10;;;1.60;;
4508;SDS011;2267;48.816;9.230;2022-10-16T14:38:25;5.00;;;1.60;;
4508;SDS011;2267;48.816;9.230;2022-10-16T14:40:53;4.00;;;1.70;;
4508;SDS011;2267;48.816;9.230;2022-10-16T14:43:28;2.50;;;1.90;;
4508;SDS011;2267;48.816;9.230;2022-10-16T14:46:01;2.80;;;1.97;;
4508;SDS011;2267;48.816;9.230;2022-10-16T14:48:30;2.40;;;2.00;;
4508;SDS011;2267;48.816;9.230;2022-10-16T14:50:59;2.97;;;2.20;;
4508;SDS011;2267;48.816;9.230;2022-10-16T14:53:28;3.60;;;1.87;;
4508;SDS011;2267;48.816;9.230;2022-10-16T14:55:55;2.30;;;1.90;;
4508;SDS011;2267;48.816;9.230;2022-10-16T14:58:23;2.20;;;1.93;;
4508;SDS011;2267;48.816;9.230;2022-10-16T15:00:51;2.47;;;1.80;;
4508;SDS011;2267;48.816;9.230;2022-10-16T15:03:18;4.50;;;2.10;;
4508;SDS011;2267;48.816;9.230;2022-10-16T15:05:45;3.10;;;2.20;;
4508;SDS011;2267;48.816;9.230;2022-10-16T15:08:13;3.80;;;2.20;;
4508;SDS011;2267;48.816;9.230;2022-10-16T15:10:42;4.97;;;4.57;;
4508;SDS011;2267;48.816;9.230;2022-10-16T15:13:13;2.53;;;2.23;;
4508;SDS011;2267;48.816;9.230;2022-10-16T15:15:44;3.30;;;2.00;;
4508;SDS011;2267;48.816;9.230;2022-10-16T15:18:13;4.47;;;3.20;;
4508;SDS011;2267;48.816;9.230;2022-10-16T15:20:47;2.40;;;2.10;;
4508;SDS011;2267;48.816;9.230;2022-10-16T15:23:16;4.07;;;2.60;;
4508;SDS011;2267;48.816;9.230;2022-10-16T15:28:13;2.73;;;1.83;;
4508;SDS011;2267;48.816;9.230;2022-10-16T15:30:42;2.63;;;2.43;;
4508;SDS011;2267;48.816;9.230;2022-10-16T15:33:12;3.00;;;2.57;;
4508;SDS011;2267;48.816;9.230;2022-10-16T15:35:50;2.77;;;2.23;;
4508;SDS011;2267;48.816;9.230;2022-10-16T15:38:18;3.10;;;2.20;;
4508;SDS011;2267;48.816;9.230;2022-10-16T15:40:47;4.23;;;1.90;;
4508;SDS011;2267;48.816;9.230;2022-10-16T15:43:15;3.80;;;2.37;;
4508;SDS011;2267;48.816;9.230;2022-10-16T15:45:42;2.40;;;2.03;;
4508;SDS011;2267;48.816;9.230;2022-10-16T15:48:13;3.00;;;2.40;;
4508;SDS011;2267;48.816;9.230;2022-10-16T15:50:39;3.53;;;2.13;;
4508;SDS011;2267;48.816;9.230;2022-10-16T15:53:06;3.03;;;2.03;;
4508;SDS011;2267;48.816;9.230;2022-10-16T15:55:33;2.40;;;2.00;;
4508;SDS011;2267;48.816;9.230;2022-10-16T15:58:03;3.00;;;1.97;;
4508;SDS011;2267;48.816;9.230;2022-10-16T16:00:31;3.67;;;2.30;;
4508;SDS011;2267;48.816;9.230;2022-10-16T16:02:58;2.83;;;2.10;;
4508;SDS011;2267;48.816;9.230;2022-10-16T16:05:25;2.50;;;1.97;;
4508;SDS011;2267;48.816;9.230;2022-10-16T16:07:53;4.63;;;2.53;;
4508;SDS011;2267;48.816;9.230;2022-10-16T16:10:20;4.23;;;2.43;;
4508;SDS011;2267;48.816;9.230;2022-10-16T16:12:48;4.70;;;1.90;;
4508;SDS011;2267;48.816;9.230;2022-10-16T16:15:21;3.13;;;2.00;;
4508;SDS011;2267;48.816;9.230;2022-10-16T16:17:48;4.50;;;3.40;;
4508;SDS011;2267;48.816;9.230;2022-10-16T16:20:15;2.30;;;1.70;;
4508;SDS011;2267;48.816;9.230;2022-10-16T16:22:43;4.60;;;2.17;;
4508;SDS011;2267;48.816;9.230;2022-10-16T16:25:09;3.37;;;2.03;;
4508;SDS011;2267;48.816;9.230;2022-10-16T16:27:36;4.13;;;2.30;;
4508;SDS011;2267;48.816;9.230;2022-10-16T16:30:09;5.40;;;1.87;;
4508;SDS011;2267;48.816;9.230;2022-10-16T16:32:44;4.47;;;3.40;;
4508;SDS011;2267;48.816;9.230;2022-10-16T16:35:11;3.07;;;2.77;;
4508;SDS011;2267;48.816;9.230;2022-10-16T16:37:38;3.47;;;2.40;;
4508;SDS011;2267;48.816;9.230;2022-10-16T16:40:05;5.97;;;2.67;;
4508;SDS011;2267;48.816;9.230;2022-10-16T16:42:32;5.57;;;2.97;;
4508;SDS011;2267;48.816;9.230;2022-10-16T16:44:59;4.70;;;3.70;;
4508;SDS011;2267;48.816;9.230;2022-10-16T16:47:26;3.87;;;3.47;;
4508;SDS011;2267;48.816;9.230;2022-10-16T16:49:53;6.00;;;3.63;;
4508;SDS011;2267;48.816;9.230;2022-10-16T16:52:20;5.30;;;3.60;;
4508;SDS011;2267;48.816;9.230;2022-10-16T16:54:48;6.80;;;5.00;;
4508;SDS011;2267;48.816;9.230;2022-10-16T16:57:19;5.83;;;5.33;;
4508;SDS011;2267;48.816;9.230;2022-10-16T16:59:46;10.13;;;4.90;;
4508;SDS011;2267;48.816;9.230;2022-10-16T17:02:15;8.00;;;6.50;;
4508;SDS011;2267;48.816;9.230;2022-10-16T17:04:43;9.33;;;7.10;;
4508;SDS011;2267;48.816;9.230;2022-10-16T17:07:10;7.97;;;6.17;;
4508;SDS011;2267;48.816;9.230;2022-10-16T17:09:36;6.03;;;4.57;;